createdAt,value
2023-02-25T00:00:35.296Z,25.52
2023-02-25T00:03:02.466Z,20.60
2023-02-25T00:05:31.719Z,22.52
2023-02-25T00:07:59.532Z,20.33
2023-02-25T00:10:26.627Z,22.30
2023-02-25T00:12:53.640Z,25.95
2023-02-25T00:15:20.765Z,19.33
2023-02-25T00:17:50.109Z,21.38
2023-02-25T00:20:19.024Z,29.98
2023-02-25T00:22:46.062Z,22.50
2023-02-25T00:25:14.141Z,24.88
2023-02-25T00:27:41.215Z,19.50
2023-02-25T00:30:10.763Z,25.40
2023-02-25T00:32:38.365Z,20.95
2023-02-25T00:35:05.681Z,27.00
2023-02-25T00:37:32.757Z,27.63
2023-02-25T00:39:59.909Z,22.75
2023-02-25T00:42:26.965Z,17.58
2023-02-25T00:44:54.026Z,20.80
2023-02-25T00:47:21.298Z,30.52
2023-02-25T00:49:48.768Z,33.38
2023-02-25T00:52:16.498Z,27.60
2023-02-25T00:54:43.605Z,28.15
2023-02-25T00:57:10.700Z,25.55
2023-02-25T00:59:37.742Z,20.20
2023-02-25T01:02:05.047Z,34.85
2023-02-25T01:04:32.105Z,20.00
2023-02-25T01:06:59.358Z,20.88
2023-02-25T01:09:26.572Z,26.30
2023-02-25T01:11:53.654Z,23.20
2023-02-25T01:14:22.262Z,27.95
2023-02-25T01:16:50.016Z,22.85
2023-02-25T01:19:19.694Z,22.90
2023-02-25T01:21:48.099Z,29.85
2023-02-25T01:24:16.873Z,26.33
2023-02-25T01:26:45.144Z,20.98
2023-02-25T01:29:13.979Z,21.38
2023-02-25T01:31:41.230Z,22.70
2023-02-25T01:34:09.899Z,22.92
2023-02-25T01:36:37.217Z,15.82
2023-02-25T01:39:04.810Z,16.33
2023-02-25T01:41:32.474Z,21.42
2023-02-25T01:44:06.880Z,27.00
2023-02-25T01:46:34.048Z,31.58
2023-02-25T01:49:02.217Z,23.23
2023-02-25T01:51:29.665Z,29.17
2023-02-25T01:53:57.553Z,23.15
2023-02-25T01:56:26.721Z,22.65
2023-02-25T01:58:54.553Z,17.88
2023-02-25T02:01:22.972Z,18.30
2023-02-25T02:03:51.471Z,19.38
2023-02-25T02:06:20.827Z,20.23
2023-02-25T02:08:48.337Z,20.33
2023-02-25T02:11:16.597Z,24.33
2023-02-25T02:13:45.623Z,23.23
2023-02-25T02:16:12.640Z,19.30
2023-02-25T02:18:41.531Z,28.05
2023-02-25T02:21:17.905Z,17.88
2023-02-25T02:23:44.908Z,23.85
2023-02-25T02:26:30.655Z,28.98
2023-02-25T02:29:06.098Z,21.92
2023-02-25T02:31:39.893Z,28.30
2023-02-25T02:34:31.898Z,21.17
2023-02-25T02:37:08.368Z,28.33
2023-02-25T02:39:44.929Z,25.67
2023-02-25T02:42:17.298Z,26.50
2023-02-25T02:45:03.042Z,20.17
2023-02-25T02:47:35.947Z,24.02
2023-02-25T02:50:14.478Z,23.38
2023-02-25T02:52:44.064Z,17.80
2023-02-25T02:55:22.023Z,19.00
2023-02-25T02:57:52.544Z,18.92
2023-02-25T03:00:26.148Z,26.70
2023-02-25T03:02:58.898Z,21.55
2023-02-25T03:05:28.055Z,18.35
2023-02-25T03:08:00.955Z,22.50
2023-02-25T03:10:28.263Z,23.77
2023-02-25T03:12:55.713Z,22.45
2023-02-25T03:15:23.504Z,16.83
2023-02-25T03:17:53.099Z,29.30
2023-02-25T03:20:24.500Z,22.27
2023-02-25T03:22:52.576Z,23.88
2023-02-25T03:25:25.236Z,24.65
2023-02-25T03:27:56.190Z,21.45
2023-02-25T03:30:26.249Z,16.67
2023-02-25T03:33:06.056Z,26.00
2023-02-25T03:35:34.969Z,20.83
2023-02-25T03:38:08.317Z,23.05
2023-02-25T03:40:36.844Z,19.45
2023-02-25T03:43:08.486Z,22.63
2023-02-25T03:45:37.099Z,23.00
2023-02-25T03:48:06.019Z,25.13
2023-02-25T03:50:38.142Z,23.58
2023-02-25T03:53:05.584Z,28.25
2023-02-25T03:55:32.603Z,30.25
2023-02-25T03:57:59.630Z,17.33
2023-02-25T04:00:32.868Z,26.88
2023-02-25T04:03:00.585Z,25.63
2023-02-25T04:05:27.998Z,27.42
2023-02-25T04:07:55.917Z,23.08
2023-02-25T04:10:23.121Z,24.45
2023-02-25T04:12:53.824Z,23.23
2023-02-25T04:15:21.122Z,25.88
2023-02-25T04:17:48.199Z,27.50
2023-02-25T04:20:19.759Z,26.77
2023-02-25T04:22:46.807Z,25.73
2023-02-25T04:25:13.928Z,28.73
2023-02-25T04:27:40.942Z,33.47
2023-02-25T04:30:08.577Z,22.08
2023-02-25T04:32:35.747Z,33.40
2023-02-25T04:35:03.332Z,21.05
2023-02-25T04:37:31.106Z,36.35
2023-02-25T04:39:58.387Z,29.65
2023-02-25T04:42:25.406Z,30.17
2023-02-25T04:44:52.456Z,25.00
2023-02-25T04:47:19.585Z,25.45
2023-02-25T04:49:46.725Z,31.08
2023-02-25T04:52:17.135Z,31.90
2023-02-25T04:54:44.244Z,26.77
2023-02-25T04:57:11.795Z,27.35
2023-02-25T04:59:41.285Z,23.75
2023-02-25T05:02:08.681Z,23.95
2023-02-25T05:04:36.611Z,32.25
2023-02-25T05:07:03.978Z,30.65
2023-02-25T05:09:31.073Z,30.55
2023-02-25T05:11:58.107Z,27.38
2023-02-25T05:14:25.239Z,30.20
2023-02-25T05:16:52.351Z,32.83
2023-02-25T05:19:24.266Z,28.42
2023-02-25T05:21:51.990Z,28.52
2023-02-25T05:24:19.068Z,32.85
2023-02-25T05:26:46.250Z,25.73
2023-02-25T05:29:13.304Z,34.22
2023-02-25T05:31:40.774Z,32.97
2023-02-25T05:34:08.983Z,32.78
2023-02-25T05:36:35.988Z,23.73
2023-02-25T05:39:03.256Z,32.38
2023-02-25T05:41:31.043Z,23.80
2023-02-25T05:43:58.301Z,34.70
2023-02-25T05:46:26.644Z,32.17
2023-02-25T05:48:54.145Z,29.88
2023-02-25T05:51:23.370Z,29.17
2023-02-25T05:53:51.275Z,21.42
2023-02-25T05:56:20.192Z,26.58
2023-02-25T05:58:48.439Z,36.05
2023-02-25T06:01:17.714Z,23.65
2023-02-25T06:03:45.642Z,27.05
2023-02-25T06:06:13.649Z,25.90
2023-02-25T06:08:41.818Z,20.80
2023-02-25T06:11:09.267Z,19.73
2023-02-25T06:13:36.401Z,24.17
2023-02-25T06:16:04.999Z,24.02
2023-02-25T06:18:36.485Z,26.75
2023-02-25T06:21:05.425Z,25.75
2023-02-25T06:23:32.758Z,25.98
2023-02-25T06:26:00.099Z,31.00
2023-02-25T06:28:27.167Z,26.10
2023-02-25T06:30:54.301Z,32.10
2023-02-25T06:33:21.321Z,21.25
2023-02-25T06:35:52.318Z,24.23
2023-02-25T06:38:19.956Z,29.92
2023-02-25T06:40:47.677Z,31.10
2023-02-25T06:43:14.690Z,20.85
2023-02-25T06:45:41.799Z,29.65
2023-02-25T06:48:08.889Z,23.35
2023-02-25T06:50:36.387Z,18.50
2023-02-25T06:53:03.410Z,27.98
2023-02-25T06:55:30.437Z,20.48
2023-02-25T06:57:57.478Z,29.85
2023-02-25T07:00:24.639Z,26.48
2023-02-25T07:02:51.695Z,27.75
2023-02-25T07:05:18.713Z,25.65
2023-02-25T07:07:45.714Z,31.58
2023-02-25T07:10:12.885Z,30.95
2023-02-25T07:12:39.895Z,35.83
2023-02-25T07:15:07.277Z,31.38
2023-02-25T07:17:34.270Z,22.77
2023-02-25T07:20:01.334Z,25.10
2023-02-25T07:22:28.427Z,27.92
2023-02-25T07:24:57.627Z,21.48
2023-02-25T07:27:24.918Z,25.67
2023-02-25T07:29:52.029Z,23.38
2023-02-25T07:32:19.190Z,21.83
2023-02-25T07:34:46.248Z,20.50
2023-02-25T07:37:13.304Z,24.38
2023-02-25T07:39:42.370Z,27.50
2023-02-25T07:42:10.498Z,23.63
2023-02-25T07:44:39.586Z,19.83
2023-02-25T07:47:06.844Z,21.80
2023-02-25T07:49:34.062Z,25.92
2023-02-25T07:52:01.267Z,29.60
2023-02-25T07:54:28.409Z,22.25
2023-02-25T07:56:55.494Z,26.70
2023-02-25T07:59:23.273Z,30.35
2023-02-25T08:01:50.408Z,23.25
2023-02-25T08:04:17.521Z,36.97
2023-02-25T08:06:45.956Z,28.42
2023-02-25T08:09:14.327Z,22.55
2023-02-25T08:11:41.434Z,27.10
2023-02-25T08:14:08.434Z,22.35
2023-02-25T08:16:35.488Z,19.92
2023-02-25T08:19:03.767Z,27.55
2023-02-25T08:21:34.544Z,20.95
2023-02-25T08:24:01.718Z,21.85
2023-02-25T08:26:29.141Z,26.85
2023-02-25T08:28:57.539Z,27.73
2023-02-25T08:31:24.972Z,19.63
2023-02-25T08:33:53.079Z,22.08
2023-02-25T08:36:24.616Z,24.25
2023-02-25T08:38:52.231Z,36.63
2023-02-25T08:41:19.895Z,21.33
2023-02-25T08:43:52.115Z,21.33
2023-02-25T08:46:21.147Z,22.27
2023-02-25T08:48:52.036Z,28.45
2023-02-25T08:51:19.414Z,24.17
2023-02-25T08:53:46.719Z,28.40
2023-02-25T08:56:14.923Z,19.23
2023-02-25T08:58:43.524Z,20.20
2023-02-25T09:01:14.961Z,21.08
2023-02-25T09:03:52.458Z,46.83
2023-02-25T09:06:20.572Z,19.23
2023-02-25T09:08:55.029Z,24.90
2023-02-25T09:11:23.079Z,25.38
2023-02-25T09:13:50.277Z,21.48
2023-02-25T09:16:17.663Z,27.40
2023-02-25T09:18:48.832Z,24.83
2023-02-25T09:21:15.915Z,23.08
2023-02-25T09:23:43.577Z,18.83
2023-02-25T09:26:10.875Z,19.45
2023-02-25T09:28:37.960Z,23.13
2023-02-25T09:31:05.156Z,29.27
2023-02-25T09:33:33.016Z,18.73
2023-02-25T09:36:08.488Z,22.00
2023-02-25T09:38:36.281Z,20.08
2023-02-25T09:41:03.416Z,28.15
2023-02-25T09:43:36.455Z,21.83
2023-02-25T09:46:08.004Z,17.17
2023-02-25T09:48:36.356Z,22.17
2023-02-25T09:51:23.382Z,26.88
2023-02-25T09:53:54.026Z,21.00
2023-02-25T09:56:22.432Z,31.08
2023-02-25T09:58:56.207Z,19.08
2023-02-25T10:01:29.377Z,25.58
2023-02-25T10:03:59.236Z,17.05
2023-02-25T10:06:31.965Z,18.17
2023-02-25T10:09:06.149Z,15.40
2023-02-25T10:11:39.332Z,14.70
2023-02-25T10:14:18.631Z,28.50
2023-02-25T10:16:55.238Z,20.85
2023-02-25T10:19:28.710Z,19.10
2023-02-25T10:22:17.069Z,16.30
2023-02-25T10:24:59.236Z,19.83
2023-02-25T10:27:39.547Z,14.68
2023-02-25T10:30:36.267Z,14.20
2023-02-25T10:33:14.180Z,16.10
2023-02-25T10:35:42.949Z,12.88
2023-02-25T10:38:12.684Z,17.75
2023-02-25T10:40:40.905Z,15.25
2023-02-25T10:43:19.079Z,17.80
2023-02-25T10:45:47.837Z,15.38
2023-02-25T10:48:19.360Z,13.60
2023-02-25T10:51:02.720Z,16.48
2023-02-25T10:53:29.878Z,15.55
2023-02-25T10:55:57.390Z,20.00
2023-02-25T10:58:40.784Z,18.85
2023-02-25T11:01:08.994Z,20.50
2023-02-25T11:03:42.386Z,20.40
2023-02-25T11:06:23.406Z,22.23
2023-02-25T11:08:50.791Z,16.03
2023-02-25T11:11:20.033Z,18.27
2023-02-25T11:13:54.881Z,16.83
2023-02-25T11:16:22.207Z,18.17
2023-02-25T11:18:54.084Z,19.20
2023-02-25T11:21:29.436Z,15.53
2023-02-25T11:24:01.611Z,20.80
2023-02-25T11:26:35.878Z,17.50
2023-02-25T11:29:07.041Z,15.33
2023-02-25T11:31:40.561Z,16.60
2023-02-25T11:34:14.533Z,17.23
2023-02-25T11:36:42.020Z,17.00
2023-02-25T11:39:16.054Z,16.63
2023-02-25T11:41:44.315Z,12.05
2023-02-25T11:44:17.903Z,10.57
2023-02-25T11:46:45.167Z,16.02
2023-02-25T11:49:18.545Z,17.50
2023-02-25T11:51:59.599Z,9.20
2023-02-25T11:54:37.049Z,9.90
2023-02-25T11:57:13.028Z,11.38
2023-02-25T11:59:47.163Z,11.15
2023-02-25T12:02:25.096Z,9.70
2023-02-25T12:04:52.188Z,10.00
2023-02-25T12:07:28.421Z,9.20
2023-02-25T12:10:04.849Z,10.48
2023-02-25T12:12:56.827Z,9.10
2023-02-25T12:15:53.466Z,10.90
2023-02-25T12:18:23.445Z,10.10
2023-02-25T12:21:19.198Z,10.63
2023-02-25T12:23:58.545Z,9.93
2023-02-25T12:26:40.942Z,10.70
2023-02-25T12:29:20.588Z,9.37
2023-02-25T12:31:59.795Z,14.40
2023-02-25T12:34:33.579Z,16.27
2023-02-25T12:37:00.954Z,14.37
2023-02-25T12:39:38.244Z,10.60
2023-02-25T12:42:18.157Z,10.00
2023-02-25T12:45:02.592Z,11.93
2023-02-25T12:47:38.828Z,11.77
2023-02-25T12:50:38.449Z,10.93
2023-02-25T12:53:44.120Z,10.55
2023-02-25T12:56:26.534Z,11.77
2023-02-25T12:59:11.622Z,13.07
2023-02-25T13:01:57.596Z,16.05
2023-02-25T13:04:51.416Z,8.52
2023-02-25T13:07:27.320Z,10.45
2023-02-25T13:10:04.553Z,11.00
2023-02-25T13:12:31.586Z,13.45
2023-02-25T13:15:17.374Z,10.02
2023-02-25T13:18:04.251Z,11.40
2023-02-25T13:20:31.300Z,9.80
2023-02-25T13:23:03.964Z,11.25
2023-02-25T13:25:49.873Z,12.00
2023-02-25T13:28:20.716Z,11.25
2023-02-25T13:31:05.633Z,12.63
2023-02-25T13:33:39.053Z,11.93
2023-02-25T13:36:15.182Z,10.13
2023-02-25T13:38:54.370Z,13.02
2023-02-25T13:41:24.938Z,11.47
2023-02-25T13:44:01.646Z,10.40
2023-02-25T13:46:37.727Z,12.80
2023-02-25T13:49:23.503Z,14.27
2023-02-25T13:52:09.512Z,10.77
2023-02-25T13:54:59.607Z,10.40
2023-02-25T13:57:40.855Z,12.40
2023-02-25T14:00:30.620Z,12.65
2023-02-25T14:03:16.100Z,14.77
2023-02-25T14:06:01.940Z,12.10
2023-02-25T14:08:48.558Z,15.10
2023-02-25T14:11:21.975Z,13.55
2023-02-25T14:13:59.168Z,12.63
2023-02-25T14:16:29.265Z,12.73
2023-02-25T14:19:02.828Z,13.27
2023-02-25T14:21:38.847Z,11.45
2023-02-25T14:24:13.389Z,15.13
2023-02-25T14:26:56.446Z,14.63
2023-02-25T14:29:35.124Z,12.65
2023-02-25T14:32:18.977Z,12.02
2023-02-25T14:34:46.340Z,12.82
2023-02-25T14:37:26.814Z,11.68
2023-02-25T14:40:02.760Z,13.25
2023-02-25T14:42:36.256Z,12.98
2023-02-25T14:45:09.424Z,12.25
2023-02-25T14:47:40.747Z,13.38
2023-02-25T14:50:12.175Z,11.63
2023-02-25T14:53:02.456Z,12.52
2023-02-25T14:55:46.384Z,13.20
2023-02-25T14:58:13.517Z,16.17
2023-02-25T15:00:59.015Z,12.43
2023-02-25T15:03:43.205Z,15.00
2023-02-25T15:06:29.179Z,10.60
2023-02-25T15:09:15.135Z,11.85
2023-02-25T15:11:54.477Z,10.95
2023-02-25T15:14:34.213Z,10.18
2023-02-25T15:17:14.591Z,8.90
2023-02-25T15:19:53.204Z,12.25
2023-02-25T15:22:24.412Z,9.10
2023-02-25T15:24:52.575Z,14.30
2023-02-25T15:27:38.249Z,10.57
2023-02-25T15:30:12.715Z,16.95
2023-02-25T15:33:07.312Z,9.10
2023-02-25T15:35:37.316Z,10.50
2023-02-25T15:38:07.159Z,9.88
2023-02-25T15:40:44.828Z,15.60
2023-02-25T15:43:15.192Z,12.65
2023-02-25T15:45:43.227Z,14.95
2023-02-25T15:48:10.373Z,10.75
2023-02-25T15:50:43.356Z,9.13
2023-02-25T15:53:12.008Z,9.48
2023-02-25T15:55:43.058Z,11.73
2023-02-25T15:58:25.463Z,11.60
2023-02-25T16:00:52.676Z,11.45
2023-02-25T16:03:31.857Z,8.57
2023-02-25T16:06:03.603Z,9.70
2023-02-25T16:08:49.379Z,14.93
2023-02-25T16:11:24.103Z,9.50
2023-02-25T16:13:52.177Z,8.15
2023-02-25T16:16:19.549Z,7.60
2023-02-25T16:18:50.328Z,9.38
2023-02-25T16:21:17.361Z,13.45
2023-02-25T16:23:44.466Z,12.27
2023-02-25T16:26:37.791Z,10.40
2023-02-25T16:29:23.343Z,9.27
2023-02-25T16:31:50.512Z,8.05
2023-02-25T16:34:17.677Z,12.80
2023-02-25T16:37:03.623Z,9.95
2023-02-25T16:39:31.298Z,9.57
2023-02-25T16:42:02.947Z,17.98
2023-02-25T16:44:33.618Z,10.50
2023-02-25T16:47:00.744Z,11.52
2023-02-25T16:49:31.635Z,9.82
2023-02-25T16:51:58.847Z,8.27
2023-02-25T16:54:28.882Z,9.30
2023-02-25T16:56:59.214Z,7.97
2023-02-25T16:59:26.291Z,10.13
2023-02-25T17:01:58.676Z,10.77
2023-02-25T17:04:33.596Z,9.55
2023-02-25T17:07:06.820Z,10.48
2023-02-25T17:09:33.988Z,9.40
2023-02-25T17:12:01.754Z,7.97
2023-02-25T17:14:29.512Z,9.80
2023-02-25T17:16:56.950Z,13.18
2023-02-25T17:19:24.437Z,10.55
2023-02-25T17:21:53.848Z,9.52
2023-02-25T17:24:23.427Z,10.25
2023-02-25T17:26:51.488Z,10.93
2023-02-25T17:29:19.174Z,14.20
2023-02-25T17:31:48.502Z,13.07
2023-02-25T17:34:20.630Z,10.13
2023-02-25T17:36:49.239Z,12.52
2023-02-25T17:39:17.553Z,9.88
2023-02-25T17:41:45.256Z,8.57
2023-02-25T17:44:12.844Z,9.82
2023-02-25T17:46:43.868Z,9.27
2023-02-25T17:49:29.436Z,7.60
2023-02-25T17:51:58.935Z,11.50
2023-02-25T17:54:30.563Z,11.13
2023-02-25T17:56:58.984Z,11.32
2023-02-25T17:59:30.433Z,8.90
2023-02-25T18:02:00.391Z,8.65
2023-02-25T18:04:35.779Z,10.10
2023-02-25T18:07:29.730Z,9.93
2023-02-25T18:10:00.313Z,10.68
2023-02-25T18:12:35.575Z,9.93
2023-02-25T18:15:15.541Z,9.18
2023-02-25T18:17:43.446Z,11.95
2023-02-25T18:20:29.070Z,11.07
2023-02-25T18:22:59.597Z,9.45
2023-02-25T18:25:34.658Z,9.73
2023-02-25T18:28:02.305Z,10.98
2023-02-25T18:30:30.998Z,10.63
2023-02-25T18:32:59.108Z,11.98
2023-02-25T18:35:27.155Z,8.77
2023-02-25T18:37:55.840Z,13.77
2023-02-25T18:40:22.907Z,11.38
2023-02-25T18:42:49.926Z,10.43
2023-02-25T18:45:18.659Z,9.93
2023-02-25T18:47:45.936Z,16.85
2023-02-25T18:50:13.069Z,9.07
2023-02-25T18:52:40.848Z,10.60
2023-02-25T18:55:08.876Z,16.38
2023-02-25T18:57:35.928Z,8.30
2023-02-25T19:00:03.505Z,8.70
2023-02-25T19:02:35.241Z,12.95
2023-02-25T19:05:02.906Z,9.15
2023-02-25T19:07:31.220Z,8.40
2023-02-25T19:09:58.296Z,16.13
2023-02-25T19:12:26.464Z,11.90
2023-02-25T19:15:00.566Z,12.45
2023-02-25T19:17:30.826Z,12.00
2023-02-25T19:19:58.214Z,9.52
2023-02-25T19:22:25.537Z,8.25
2023-02-25T19:24:52.673Z,11.70
2023-02-25T19:27:21.814Z,10.57
2023-02-25T19:29:50.425Z,10.68
2023-02-25T19:32:18.087Z,9.20
2023-02-25T19:34:46.109Z,10.38
2023-02-25T19:37:13.620Z,10.63
2023-02-25T19:39:41.364Z,8.57
2023-02-25T19:42:09.343Z,8.98
2023-02-25T19:44:37.243Z,14.98
2023-02-25T19:47:05.056Z,11.65
2023-02-25T19:49:32.457Z,13.60
2023-02-25T19:51:59.498Z,11.25
2023-02-25T19:54:26.591Z,8.35
2023-02-25T19:56:53.671Z,9.18
2023-02-25T19:59:21.049Z,10.18
2023-02-25T20:01:49.581Z,8.23
2023-02-25T20:04:16.786Z,9.00
2023-02-25T20:06:43.885Z,10.40
2023-02-25T20:09:11.003Z,11.27
2023-02-25T20:11:38.039Z,11.13
2023-02-25T20:14:05.586Z,10.57
2023-02-25T20:16:33.394Z,11.30
2023-02-25T20:19:00.812Z,20.30
2023-02-25T20:21:28.275Z,11.27
2023-02-25T20:23:57.809Z,11.00
2023-02-25T20:26:25.855Z,13.30
2023-02-25T20:28:56.635Z,24.30
2023-02-25T20:31:24.864Z,15.63
2023-02-25T20:33:53.518Z,14.65
2023-02-25T20:36:34.266Z,15.75
2023-02-25T20:39:20.323Z,16.52
2023-02-25T20:41:47.593Z,17.05
2023-02-25T20:44:15.046Z,17.98
2023-02-25T20:46:42.676Z,18.95
2023-02-25T20:49:13.724Z,15.95
2023-02-25T20:51:42.494Z,14.73
2023-02-25T20:54:10.428Z,13.30
2023-02-25T20:56:37.529Z,12.05
2023-02-25T20:59:04.942Z,13.45
2023-02-25T21:01:32.047Z,11.90
2023-02-25T21:04:00.000Z,17.58
2023-02-25T21:06:27.515Z,12.55
2023-02-25T21:08:54.868Z,15.23
2023-02-25T21:11:23.926Z,19.73
2023-02-25T21:13:51.764Z,18.60
2023-02-25T21:16:19.143Z,15.50
2023-02-25T21:18:46.712Z,15.52
2023-02-25T21:21:14.928Z,13.25
2023-02-25T21:23:42.449Z,10.20
2023-02-25T21:26:10.348Z,10.30
2023-02-25T21:28:37.650Z,8.93
2023-02-25T21:31:06.666Z,8.60
2023-02-25T21:33:34.372Z,10.50
2023-02-25T21:36:01.507Z,8.32
2023-02-25T21:38:29.263Z,11.02
2023-02-25T21:40:57.004Z,10.40
2023-02-25T21:43:24.612Z,12.43
2023-02-25T21:45:55.716Z,13.68
2023-02-25T21:48:24.056Z,10.82
2023-02-25T21:50:51.096Z,11.73
2023-02-25T21:53:18.157Z,14.18
2023-02-25T21:55:45.237Z,11.70
2023-02-25T21:58:12.755Z,11.77
2023-02-25T22:00:40.146Z,13.30
2023-02-25T22:03:10.363Z,11.00
2023-02-25T22:05:44.042Z,10.70
2023-02-25T22:08:11.057Z,7.70
2023-02-25T22:10:39.858Z,8.70
2023-02-25T22:13:08.657Z,9.20
2023-02-25T22:15:35.947Z,16.52
2023-02-25T22:18:03.241Z,9.55
2023-02-25T22:20:30.326Z,9.68
2023-02-25T22:22:58.051Z,10.50
2023-02-25T22:25:25.102Z,12.07
2023-02-25T22:27:52.213Z,14.10
2023-02-25T22:30:20.663Z,12.43
2023-02-25T22:32:47.732Z,13.38
2023-02-25T22:35:15.345Z,10.00
2023-02-25T22:37:42.399Z,14.85
2023-02-25T22:40:09.741Z,14.30
2023-02-25T22:42:36.808Z,14.18
2023-02-25T22:45:05.203Z,13.82
2023-02-25T22:47:32.248Z,9.93
2023-02-25T22:49:59.289Z,11.05
2023-02-25T22:52:26.408Z,9.32
2023-02-25T22:54:53.635Z,12.70
2023-02-25T22:57:20.771Z,11.23
2023-02-25T22:59:48.380Z,11.57
2023-02-25T23:02:15.433Z,11.50
2023-02-25T23:04:42.602Z,13.90
2023-02-25T23:07:09.748Z,10.20
2023-02-25T23:09:36.747Z,11.20
2023-02-25T23:12:04.225Z,10.60
2023-02-25T23:14:34.373Z,9.65
2023-02-25T23:17:01.375Z,14.55
2023-02-25T23:19:28.411Z,10.52
2023-02-25T23:21:55.433Z,14.38
2023-02-25T23:24:23.327Z,11.32
2023-02-25T23:26:53.500Z,13.80
2023-02-25T23:29:20.555Z,10.80
2023-02-25T23:31:48.355Z,9.40
2023-02-25T23:34:18.854Z,10.38
2023-02-25T23:36:46.430Z,13.25
2023-02-25T23:39:14.533Z,12.60
2023-02-25T23:41:42.026Z,13.05
2023-02-25T23:44:09.488Z,10.88
2023-02-25T23:46:37.293Z,9.65
2023-02-25T23:49:07.093Z,12.25
2023-02-25T23:51:34.606Z,11.27
2023-02-25T23:54:02.959Z,15.13
2023-02-25T23:56:31.091Z,10.07
2023-02-25T23:58:58.262Z,9.13
